Carp, Minnesota
Current Conditions -  °F | °C
As of 6:53 AM on Friday 28 Nov 2014 (Local Time) from KBDE Reporting Station
Broken Clouds Broken Clouds  
Wind Chill: -4°   Ceiling: 12000
Heat Index:   Visibility: 10mi
Dew Point: -1°   Wind: 6mph
Humidity: 73%   Direction: 100°E
Pressure: 30.02"   Gusts: NA
Location:  48.5595°N, 94.661°W
Report Text: KBDE 281253Z AUTO 10005KT 10SM BKN120 M14/M18 A3002 RMK AO2 SLP196 T11441183 TSNO
Loading
Personal Weather Stations






























Interactive Weather Map New forecast layout! Learn more

10-Day Weather Forecast

Advertisements
Track Severe Weather on mobile